sensor_id;sensor_type;location;lat;lon;timestamp;P1;durP1;ratioP1;P2;durP2;ratioP2
55288;SDS011;41154;45.394;5.734;2023-04-25T00:01:11;2.50;;;1.65;;
55288;SDS011;41154;45.394;5.734;2023-04-25T00:03:38;3.83;;;1.88;;
55288;SDS011;41154;45.394;5.734;2023-04-25T00:06:04;3.47;;;1.80;;
55288;SDS011;41154;45.394;5.734;2023-04-25T00:08:30;2.45;;;1.90;;
55288;SDS011;41154;45.394;5.734;2023-04-25T00:10:56;3.05;;;1.80;;
55288;SDS011;41154;45.394;5.734;2023-04-25T00:13:22;4.28;;;2.17;;
55288;SDS011;41154;45.394;5.734;2023-04-25T00:15:48;3.28;;;2.05;;
55288;SDS011;41154;45.394;5.734;2023-04-25T00:18:14;5.90;;;2.25;;
55288;SDS011;41154;45.394;5.734;2023-04-25T00:20:40;3.83;;;2.78;;
55288;SDS011;41154;45.394;5.734;2023-04-25T00:23:17;6.78;;;2.15;;
55288;SDS011;41154;45.394;5.734;2023-04-25T00:25:44;4.15;;;2.20;;
55288;SDS011;41154;45.394;5.734;2023-04-25T00:28:11;5.25;;;2.10;;
55288;SDS011;41154;45.394;5.734;2023-04-25T00:30:37;4.25;;;2.35;;
55288;SDS011;41154;45.394;5.734;2023-04-25T00:33:04;3.85;;;2.40;;
55288;SDS011;41154;45.394;5.734;2023-04-25T00:35:31;5.03;;;2.67;;
55288;SDS011;41154;45.394;5.734;2023-04-25T00:37:57;2.63;;;2.00;;
55288;SDS011;41154;45.394;5.734;2023-04-25T00:40:23;3.67;;;1.88;;
55288;SDS011;41154;45.394;5.734;2023-04-25T00:42:50;5.93;;;2.35;;
55288;SDS011;41154;45.394;5.734;2023-04-25T00:45:17;3.42;;;2.00;;
55288;SDS011;41154;45.394;5.734;2023-04-25T00:47:43;3.22;;;2.45;;
55288;SDS011;41154;45.394;5.734;2023-04-25T00:50:09;4.68;;;2.72;;
55288;SDS011;41154;45.394;5.734;2023-04-25T00:52:36;6.22;;;3.28;;
55288;SDS011;41154;45.394;5.734;2023-04-25T00:55:04;5.20;;;2.50;;
55288;SDS011;41154;45.394;5.734;2023-04-25T00:57:30;6.20;;;2.35;;
55288;SDS011;41154;45.394;5.734;2023-04-25T00:59:56;4.75;;;3.20;;
55288;SDS011;41154;45.394;5.734;2023-04-25T01:02:22;3.70;;;2.35;;
55288;SDS011;41154;45.394;5.734;2023-04-25T01:04:48;3.40;;;2.20;;
55288;SDS011;41154;45.394;5.734;2023-04-25T01:07:14;4.35;;;2.40;;
55288;SDS011;41154;45.394;5.734;2023-04-25T01:09:41;2.97;;;2.40;;
55288;SDS011;41154;45.394;5.734;2023-04-25T01:12:07;3.55;;;2.22;;
55288;SDS011;41154;45.394;5.734;2023-04-25T01:14:33;3.58;;;2.55;;
55288;SDS011;41154;45.394;5.734;2023-04-25T01:16:59;3.63;;;2.45;;
55288;SDS011;41154;45.394;5.734;2023-04-25T01:19:25;3.35;;;2.13;;
55288;SDS011;41154;45.394;5.734;2023-04-25T01:21:51;5.38;;;2.25;;
55288;SDS011;41154;45.394;5.734;2023-04-25T01:24:18;5.43;;;2.55;;
55288;SDS011;41154;45.394;5.734;2023-04-25T01:26:43;7.85;;;2.60;;
55288;SDS011;41154;45.394;5.734;2023-04-25T01:29:16;3.50;;;2.33;;
55288;SDS011;41154;45.394;5.734;2023-04-25T01:31:43;2.88;;;2.20;;
55288;SDS011;41154;45.394;5.734;2023-04-25T01:34:10;3.65;;;2.13;;
55288;SDS011;41154;45.394;5.734;2023-04-25T01:36:36;5.03;;;2.58;;
55288;SDS011;41154;45.394;5.734;2023-04-25T01:39:02;3.70;;;2.40;;
55288;SDS011;41154;45.394;5.734;2023-04-25T01:41:28;4.00;;;2.05;;
55288;SDS011;41154;45.394;5.734;2023-04-25T01:43:54;3.15;;;2.30;;
55288;SDS011;41154;45.394;5.734;2023-04-25T01:46:20;6.18;;;3.08;;
55288;SDS011;41154;45.394;5.734;2023-04-25T01:48:47;3.47;;;2.10;;
55288;SDS011;41154;45.394;5.734;2023-04-25T01:51:13;2.60;;;1.80;;
55288;SDS011;41154;45.394;5.734;2023-04-25T01:53:40;6.55;;;2.15;;
55288;SDS011;41154;45.394;5.734;2023-04-25T01:56:06;1.98;;;1.77;;
55288;SDS011;41154;45.394;5.734;2023-04-25T01:58:34;1.67;;;1.58;;
55288;SDS011;41154;45.394;5.734;2023-04-25T02:01:18;3.42;;;2.42;;
55288;SDS011;41154;45.394;5.734;2023-04-25T02:03:55;4.22;;;2.80;;
55288;SDS011;41154;45.394;5.734;2023-04-25T02:06:34;4.22;;;3.10;;
55288;SDS011;41154;45.394;5.734;2023-04-25T02:09:00;6.57;;;2.53;;
55288;SDS011;41154;45.394;5.734;2023-04-25T02:11:26;3.63;;;2.10;;
55288;SDS011;41154;45.394;5.734;2023-04-25T02:14:10;4.22;;;2.33;;
55288;SDS011;41154;45.394;5.734;2023-04-25T02:16:56;3.28;;;2.08;;
55288;SDS011;41154;45.394;5.734;2023-04-25T02:19:22;2.75;;;2.10;;
55288;SDS011;41154;45.394;5.734;2023-04-25T02:21:48;4.13;;;2.10;;
55288;SDS011;41154;45.394;5.734;2023-04-25T02:24:13;3.75;;;2.28;;
55288;SDS011;41154;45.394;5.734;2023-04-25T02:26:39;4.00;;;2.38;;
55288;SDS011;41154;45.394;5.734;2023-04-25T02:29:07;5.68;;;2.38;;
55288;SDS011;41154;45.394;5.734;2023-04-25T02:31:34;4.70;;;2.35;;
55288;SDS011;41154;45.394;5.734;2023-04-25T02:33:59;6.57;;;2.38;;
55288;SDS011;41154;45.394;5.734;2023-04-25T02:36:26;4.10;;;2.45;;
55288;SDS011;41154;45.394;5.734;2023-04-25T02:38:52;5.22;;;2.60;;
55288;SDS011;41154;45.394;5.734;2023-04-25T02:41:19;4.25;;;2.05;;
55288;SDS011;41154;45.394;5.734;2023-04-25T02:43:46;3.65;;;2.30;;
55288;SDS011;41154;45.394;5.734;2023-04-25T02:46:12;3.22;;;2.10;;
55288;SDS011;41154;45.394;5.734;2023-04-25T02:48:38;2.90;;;1.90;;
55288;SDS011;41154;45.394;5.734;2023-04-25T02:51:04;4.18;;;2.10;;
55288;SDS011;41154;45.394;5.734;2023-04-25T02:53:30;4.65;;;2.67;;
55288;SDS011;41154;45.394;5.734;2023-04-25T02:55:56;4.40;;;2.22;;
55288;SDS011;41154;45.394;5.734;2023-04-25T02:58:23;2.45;;;2.17;;
55288;SDS011;41154;45.394;5.734;2023-04-25T03:00:51;3.47;;;2.47;;
55288;SDS011;41154;45.394;5.734;2023-04-25T03:03:17;3.65;;;2.80;;
55288;SDS011;41154;45.394;5.734;2023-04-25T03:05:44;4.07;;;2.75;;
55288;SDS011;41154;45.394;5.734;2023-04-25T03:08:13;5.00;;;2.88;;
55288;SDS011;41154;45.394;5.734;2023-04-25T03:10:39;1.98;;;1.65;;
55288;SDS011;41154;45.394;5.734;2023-04-25T03:13:08;6.00;;;1.92;;
55288;SDS011;41154;45.394;5.734;2023-04-25T03:15:34;3.20;;;1.90;;
55288;SDS011;41154;45.394;5.734;2023-04-25T03:18:00;2.30;;;1.80;;
55288;SDS011;41154;45.394;5.734;2023-04-25T03:20:26;2.50;;;1.60;;
55288;SDS011;41154;45.394;5.734;2023-04-25T03:22:52;3.75;;;2.55;;
55288;SDS011;41154;45.394;5.734;2023-04-25T03:25:18;4.30;;;2.20;;
55288;SDS011;41154;45.394;5.734;2023-04-25T03:27:44;5.97;;;2.42;;
55288;SDS011;41154;45.394;5.734;2023-04-25T03:30:10;5.32;;;2.30;;
55288;SDS011;41154;45.394;5.734;2023-04-25T03:32:38;5.97;;;2.28;;
55288;SDS011;41154;45.394;5.734;2023-04-25T03:35:05;2.55;;;1.95;;
55288;SDS011;41154;45.394;5.734;2023-04-25T03:37:32;4.50;;;2.20;;
55288;SDS011;41154;45.394;5.734;2023-04-25T03:39:57;3.85;;;2.35;;
55288;SDS011;41154;45.394;5.734;2023-04-25T03:42:30;6.72;;;3.17;;
55288;SDS011;41154;45.394;5.734;2023-04-25T03:44:56;5.22;;;2.88;;
55288;SDS011;41154;45.394;5.734;2023-04-25T03:47:21;5.97;;;3.28;;
55288;SDS011;41154;45.394;5.734;2023-04-25T03:49:48;4.32;;;2.38;;
55288;SDS011;41154;45.394;5.734;2023-04-25T03:52:19;7.78;;;2.70;;
55288;SDS011;41154;45.394;5.734;2023-04-25T03:54:47;4.63;;;2.70;;
55288;SDS011;41154;45.394;5.734;2023-04-25T03:57:16;5.85;;;2.33;;
55288;SDS011;41154;45.394;5.734;2023-04-25T03:59:43;5.88;;;3.00;;
55288;SDS011;41154;45.394;5.734;2023-04-25T04:02:11;7.43;;;3.40;;
55288;SDS011;41154;45.394;5.734;2023-04-25T04:04:39;7.38;;;3.25;;
55288;SDS011;41154;45.394;5.734;2023-04-25T04:07:05;5.72;;;2.90;;
55288;SDS011;41154;45.394;5.734;2023-04-25T04:09:34;3.97;;;2.28;;
55288;SDS011;41154;45.394;5.734;2023-04-25T04:12:04;5.15;;;2.00;;
55288;SDS011;41154;45.394;5.734;2023-04-25T04:14:32;3.83;;;1.95;;
55288;SDS011;41154;45.394;5.734;2023-04-25T04:16:58;3.20;;;2.22;;
55288;SDS011;41154;45.394;5.734;2023-04-25T04:19:26;3.83;;;2.08;;
55288;SDS011;41154;45.394;5.734;2023-04-25T04:22:03;5.18;;;2.20;;
55288;SDS011;41154;45.394;5.734;2023-04-25T04:24:29;4.32;;;1.90;;
55288;SDS011;41154;45.394;5.734;2023-04-25T04:27:00;5.25;;;2.40;;
55288;SDS011;41154;45.394;5.734;2023-04-25T04:29:47;4.32;;;2.05;;
55288;SDS011;41154;45.394;5.734;2023-04-25T04:32:39;7.68;;;2.75;;
55288;SDS011;41154;45.394;5.734;2023-04-25T04:35:05;5.03;;;2.17;;
55288;SDS011;41154;45.394;5.734;2023-04-25T04:37:32;4.97;;;2.08;;
55288;SDS011;41154;45.394;5.734;2023-04-25T04:40:01;6.38;;;2.42;;
55288;SDS011;41154;45.394;5.734;2023-04-25T04:42:49;4.13;;;2.25;;
55288;SDS011;41154;45.394;5.734;2023-04-25T04:45:34;4.17;;;2.17;;
55288;SDS011;41154;45.394;5.734;2023-04-25T04:48:08;5.07;;;2.40;;
55288;SDS011;41154;45.394;5.734;2023-04-25T04:51:00;6.35;;;2.22;;
55288;SDS011;41154;45.394;5.734;2023-04-25T04:53:44;3.67;;;2.03;;
55288;SDS011;41154;45.394;5.734;2023-04-25T04:56:18;3.45;;;2.05;;
55288;SDS011;41154;45.394;5.734;2023-04-25T04:58:58;4.45;;;1.95;;
55288;SDS011;41154;45.394;5.734;2023-04-25T05:01:30;2.42;;;1.80;;
55288;SDS011;41154;45.394;5.734;2023-04-25T05:04:13;7.40;;;2.42;;
55288;SDS011;41154;45.394;5.734;2023-04-25T05:07:05;3.80;;;2.20;;
55288;SDS011;41154;45.394;5.734;2023-04-25T05:10:10;6.88;;;2.28;;
55288;SDS011;41154;45.394;5.734;2023-04-25T05:12:54;7.00;;;3.35;;
55288;SDS011;41154;45.394;5.734;2023-04-25T05:15:37;3.15;;;1.95;;
55288;SDS011;41154;45.394;5.734;2023-04-25T05:18:20;5.15;;;2.28;;
55288;SDS011;41154;45.394;5.734;2023-04-25T05:21:12;3.80;;;2.17;;
55288;SDS011;41154;45.394;5.734;2023-04-25T05:24:01;5.43;;;1.83;;
55288;SDS011;41154;45.394;5.734;2023-04-25T05:26:53;6.55;;;2.45;;
55288;SDS011;41154;45.394;5.734;2023-04-25T05:29:39;5.43;;;2.90;;
55288;SDS011;41154;45.394;5.734;2023-04-25T05:32:25;6.05;;;3.25;;
55288;SDS011;41154;45.394;5.734;2023-04-25T05:34:51;6.65;;;2.83;;
55288;SDS011;41154;45.394;5.734;2023-04-25T05:37:30;5.72;;;3.05;;
55288;SDS011;41154;45.394;5.734;2023-04-25T05:40:07;8.65;;;2.58;;
55288;SDS011;41154;45.394;5.734;2023-04-25T05:42:56;4.68;;;2.28;;
55288;SDS011;41154;45.394;5.734;2023-04-25T05:45:42;3.83;;;2.40;;
55288;SDS011;41154;45.394;5.734;2023-04-25T05:48:29;4.07;;;2.22;;
55288;SDS011;41154;45.394;5.734;2023-04-25T05:51:12;6.22;;;2.40;;
55288;SDS011;41154;45.394;5.734;2023-04-25T05:53:58;4.53;;;2.63;;
55288;SDS011;41154;45.394;5.734;2023-04-25T05:56:24;4.88;;;2.50;;
55288;SDS011;41154;45.394;5.734;2023-04-25T05:58:51;5.45;;;2.67;;
55288;SDS011;41154;45.394;5.734;2023-04-25T06:01:17;6.15;;;2.75;;
55288;SDS011;41154;45.394;5.734;2023-04-25T06:03:43;5.15;;;2.83;;
55288;SDS011;41154;45.394;5.734;2023-04-25T06:06:11;11.02;;;3.20;;
55288;SDS011;41154;45.394;5.734;2023-04-25T06:08:37;4.70;;;2.70;;
55288;SDS011;41154;45.394;5.734;2023-04-25T06:11:03;4.85;;;2.60;;
55288;SDS011;41154;45.394;5.734;2023-04-25T06:13:29;9.93;;;3.15;;
55288;SDS011;41154;45.394;5.734;2023-04-25T06:15:56;4.22;;;2.55;;
55288;SDS011;41154;45.394;5.734;2023-04-25T06:18:22;4.65;;;2.60;;
55288;SDS011;41154;45.394;5.734;2023-04-25T06:20:48;6.95;;;2.50;;
55288;SDS011;41154;45.394;5.734;2023-04-25T06:23:16;4.75;;;2.58;;
55288;SDS011;41154;45.394;5.734;2023-04-25T06:25:50;4.93;;;2.60;;
55288;SDS011;41154;45.394;5.734;2023-04-25T06:28:16;3.50;;;2.22;;
55288;SDS011;41154;45.394;5.734;2023-04-25T06:30:43;4.15;;;2.17;;
55288;SDS011;41154;45.394;5.734;2023-04-25T06:33:12;5.97;;;2.55;;
55288;SDS011;41154;45.394;5.734;2023-04-25T06:35:39;5.20;;;2.78;;
55288;SDS011;41154;45.394;5.734;2023-04-25T06:38:08;3.92;;;2.22;;
55288;SDS011;41154;45.394;5.734;2023-04-25T06:40:36;6.00;;;2.22;;
55288;SDS011;41154;45.394;5.734;2023-04-25T06:43:02;7.03;;;2.97;;
55288;SDS011;41154;45.394;5.734;2023-04-25T06:45:54;4.38;;;2.60;;
55288;SDS011;41154;45.394;5.734;2023-04-25T06:48:21;6.53;;;2.92;;
55288;SDS011;41154;45.394;5.734;2023-04-25T06:50:47;3.70;;;2.90;;
55288;SDS011;41154;45.394;5.734;2023-04-25T06:53:13;6.25;;;3.13;;
55288;SDS011;41154;45.394;5.734;2023-04-25T06:55:41;5.13;;;2.20;;
55288;SDS011;41154;45.394;5.734;2023-04-25T06:58:12;8.13;;;2.53;;
55288;SDS011;41154;45.394;5.734;2023-04-25T07:00:53;4.53;;;2.50;;
55288;SDS011;41154;45.394;5.734;2023-04-25T07:03:22;5.60;;;2.78;;
55288;SDS011;41154;45.394;5.734;2023-04-25T07:05:50;5.97;;;3.08;;
55288;SDS011;41154;45.394;5.734;2023-04-25T07:08:17;7.85;;;3.30;;
55288;SDS011;41154;45.394;5.734;2023-04-25T07:10:42;4.63;;;2.95;;
55288;SDS011;41154;45.394;5.734;2023-04-25T07:13:09;6.45;;;2.63;;
55288;SDS011;41154;45.394;5.734;2023-04-25T07:15:35;3.63;;;2.70;;
55288;SDS011;41154;45.394;5.734;2023-04-25T07:18:01;4.65;;;2.63;;
55288;SDS011;41154;45.394;5.734;2023-04-25T07:20:27;6.45;;;3.20;;
55288;SDS011;41154;45.394;5.734;2023-04-25T07:22:54;5.57;;;2.35;;
55288;SDS011;41154;45.394;5.734;2023-04-25T07:25:20;7.13;;;2.92;;
55288;SDS011;41154;45.394;5.734;2023-04-25T07:27:46;7.40;;;2.83;;
55288;SDS011;41154;45.394;5.734;2023-04-25T07:30:15;5.80;;;2.63;;
55288;SDS011;41154;45.394;5.734;2023-04-25T07:32:41;6.75;;;2.92;;
55288;SDS011;41154;45.394;5.734;2023-04-25T07:35:07;5.03;;;2.78;;
55288;SDS011;41154;45.394;5.734;2023-04-25T07:37:34;7.68;;;2.05;;
55288;SDS011;41154;45.394;5.734;2023-04-25T07:40:13;9.50;;;3.17;;
55288;SDS011;41154;45.394;5.734;2023-04-25T07:42:45;5.28;;;2.83;;
55288;SDS011;41154;45.394;5.734;2023-04-25T07:45:14;5.47;;;2.75;;
55288;SDS011;41154;45.394;5.734;2023-04-25T07:47:40;4.90;;;2.75;;
55288;SDS011;41154;45.394;5.734;2023-04-25T07:50:07;7.60;;;3.20;;
55288;SDS011;41154;45.394;5.734;2023-04-25T07:52:33;5.38;;;3.00;;
55288;SDS011;41154;45.394;5.734;2023-04-25T07:55:07;7.35;;;2.95;;
55288;SDS011;41154;45.394;5.734;2023-04-25T07:57:53;4.95;;;2.67;;
55288;SDS011;41154;45.394;5.734;2023-04-25T08:00:19;6.82;;;2.78;;
55288;SDS011;41154;45.394;5.734;2023-04-25T08:02:51;4.57;;;2.50;;
55288;SDS011;41154;45.394;5.734;2023-04-25T08:05:17;6.50;;;3.03;;
55288;SDS011;41154;45.394;5.734;2023-04-25T08:07:47;5.78;;;2.50;;
55288;SDS011;41154;45.394;5.734;2023-04-25T08:10:13;4.90;;;2.55;;
55288;SDS011;41154;45.394;5.734;2023-04-25T08:12:41;6.97;;;2.40;;
55288;SDS011;41154;45.394;5.734;2023-04-25T08:15:08;4.45;;;2.30;;
55288;SDS011;41154;45.394;5.734;2023-04-25T08:17:37;6.90;;;2.30;;
55288;SDS011;41154;45.394;5.734;2023-04-25T08:20:03;9.73;;;2.67;;
55288;SDS011;41154;45.394;5.734;2023-04-25T08:22:31;3.60;;;2.72;;
55288;SDS011;41154;45.394;5.734;2023-04-25T08:25:17;5.55;;;2.35;;
55288;SDS011;41154;45.394;5.734;2023-04-25T08:27:43;5.00;;;2.90;;
55288;SDS011;41154;45.394;5.734;2023-04-25T08:30:09;4.85;;;3.08;;
55288;SDS011;41154;45.394;5.734;2023-04-25T08:32:37;7.75;;;2.83;;
55288;SDS011;41154;45.394;5.734;2023-04-25T08:35:24;4.85;;;3.13;;
55288;SDS011;41154;45.394;5.734;2023-04-25T08:37:50;4.43;;;2.40;;
55288;SDS011;41154;45.394;5.734;2023-04-25T08:40:17;4.35;;;2.55;;
55288;SDS011;41154;45.394;5.734;2023-04-25T08:42:57;2.50;;;2.30;;
55288;SDS011;41154;45.394;5.734;2023-04-25T08:45:23;6.13;;;2.47;;
55288;SDS011;41154;45.394;5.734;2023-04-25T08:47:52;3.60;;;2.70;;
55288;SDS011;41154;45.394;5.734;2023-04-25T08:50:19;5.40;;;2.65;;
55288;SDS011;41154;45.394;5.734;2023-04-25T08:52:50;4.60;;;2.40;;
55288;SDS011;41154;45.394;5.734;2023-04-25T08:55:18;5.25;;;3.00;;
55288;SDS011;41154;45.394;5.734;2023-04-25T08:57:47;4.75;;;2.65;;
55288;SDS011;41154;45.394;5.734;2023-04-25T09:00:15;3.88;;;2.03;;
55288;SDS011;41154;45.394;5.734;2023-04-25T09:02:43;2.92;;;2.10;;
55288;SDS011;41154;45.394;5.734;2023-04-25T09:05:12;2.28;;;2.08;;
55288;SDS011;41154;45.394;5.734;2023-04-25T09:07:39;6.00;;;2.10;;
55288;SDS011;41154;45.394;5.734;2023-04-25T09:10:05;2.70;;;2.00;;
55288;SDS011;41154;45.394;5.734;2023-04-25T09:12:34;6.53;;;2.38;;
55288;SDS011;41154;45.394;5.734;2023-04-25T09:15:05;3.70;;;2.00;;
55288;SDS011;41154;45.394;5.734;2023-04-25T09:18:02;3.70;;;1.90;;
55288;SDS011;41154;45.394;5.734;2023-04-25T09:20:33;5.05;;;2.35;;
55288;SDS011;41154;45.394;5.734;2023-04-25T09:23:08;5.55;;;2.25;;
55288;SDS011;41154;45.394;5.734;2023-04-25T09:25:36;2.25;;;1.65;;
55288;SDS011;41154;45.394;5.734;2023-04-25T09:28:08;4.85;;;2.45;;
55288;SDS011;41154;45.394;5.734;2023-04-25T09:30:35;3.55;;;2.08;;
55288;SDS011;41154;45.394;5.734;2023-04-25T09:33:10;5.68;;;1.65;;
55288;SDS011;41154;45.394;5.734;2023-04-25T09:35:40;6.78;;;1.70;;
55288;SDS011;41154;45.394;5.734;2023-04-25T09:38:14;5.57;;;2.30;;
55288;SDS011;41154;45.394;5.734;2023-04-25T09:40:53;3.22;;;2.10;;
55288;SDS011;41154;45.394;5.734;2023-04-25T09:43:42;3.72;;;2.20;;
55288;SDS011;41154;45.394;5.734;2023-04-25T09:46:11;3.47;;;1.92;;
55288;SDS011;41154;45.394;5.734;2023-04-25T09:48:40;2.60;;;1.95;;
55288;SDS011;41154;45.394;5.734;2023-04-25T09:51:16;4.57;;;2.08;;
55288;SDS011;41154;45.394;5.734;2023-04-25T09:53:45;2.38;;;2.00;;
55288;SDS011;41154;45.394;5.734;2023-04-25T09:56:35;3.05;;;1.98;;
55288;SDS011;41154;45.394;5.734;2023-04-25T09:59:06;3.78;;;2.17;;
55288;SDS011;41154;45.394;5.734;2023-04-25T10:01:36;6.60;;;2.13;;
55288;SDS011;41154;45.394;5.734;2023-04-25T10:04:11;3.47;;;1.92;;
55288;SDS011;41154;45.394;5.734;2023-04-25T10:06:58;2.92;;;1.95;;
55288;SDS011;41154;45.394;5.734;2023-04-25T10:09:26;7.13;;;2.00;;
55288;SDS011;41154;45.394;5.734;2023-04-25T10:11:57;2.78;;;1.70;;
55288;SDS011;41154;45.394;5.734;2023-04-25T10:14:24;6.32;;;2.00;;
55288;SDS011;41154;45.394;5.734;2023-04-25T10:16:51;3.10;;;1.77;;
55288;SDS011;41154;45.394;5.734;2023-04-25T10:19:21;4.32;;;1.67;;
55288;SDS011;41154;45.394;5.734;2023-04-25T10:21:53;3.15;;;1.98;;
55288;SDS011;41154;45.394;5.734;2023-04-25T10:24:32;3.70;;;2.10;;
55288;SDS011;41154;45.394;5.734;2023-04-25T10:26:59;3.35;;;2.13;;
55288;SDS011;41154;45.394;5.734;2023-04-25T10:29:26;5.45;;;2.30;;
55288;SDS011;41154;45.394;5.734;2023-04-25T10:31:52;6.72;;;2.75;;
55288;SDS011;41154;45.394;5.734;2023-04-25T10:34:19;3.38;;;2.00;;
55288;SDS011;41154;45.394;5.734;2023-04-25T10:36:49;4.45;;;2.15;;
55288;SDS011;41154;45.394;5.734;2023-04-25T10:39:24;3.40;;;1.63;;
55288;SDS011;41154;45.394;5.734;2023-04-25T10:41:53;3.15;;;1.55;;
55288;SDS011;41154;45.394;5.734;2023-04-25T10:44:21;4.47;;;2.33;;
55288;SDS011;41154;45.394;5.734;2023-04-25T10:46:47;4.10;;;2.00;;
55288;SDS011;41154;45.394;5.734;2023-04-25T10:49:32;2.17;;;1.95;;
55288;SDS011;41154;45.394;5.734;2023-04-25T10:52:13;3.38;;;1.88;;
55288;SDS011;41154;45.394;5.734;2023-04-25T10:54:52;7.57;;;2.15;;
55288;SDS011;41154;45.394;5.734;2023-04-25T11:00:18;2.47;;;1.95;;
55288;SDS011;41154;45.394;5.734;2023-04-25T11:02:57;7.03;;;3.05;;
55288;SDS011;41154;45.394;5.734;2023-04-25T11:07:58;5.53;;;2.10;;
55288;SDS011;41154;45.394;5.734;2023-04-25T11:10:25;5.53;;;2.35;;
55288;SDS011;41154;45.394;5.734;2023-04-25T11:12:54;2.83;;;2.30;;
55288;SDS011;41154;45.394;5.734;2023-04-25T11:15:21;4.00;;;2.00;;
55288;SDS011;41154;45.394;5.734;2023-04-25T11:17:47;3.40;;;2.20;;
55288;SDS011;41154;45.394;5.734;2023-04-25T11:20:13;3.53;;;2.03;;
55288;SDS011;41154;45.394;5.734;2023-04-25T11:22:40;3.25;;;2.13;;
55288;SDS011;41154;45.394;5.734;2023-04-25T11:25:09;3.53;;;2.30;;
55288;SDS011;41154;45.394;5.734;2023-04-25T11:30:23;5.82;;;2.45;;
55288;SDS011;41154;45.394;5.734;2023-04-25T11:32:50;3.60;;;2.25;;
55288;SDS011;41154;45.394;5.734;2023-04-25T11:35:17;6.22;;;2.15;;
55288;SDS011;41154;45.394;5.734;2023-04-25T11:37:45;2.92;;;1.83;;
55288;SDS011;41154;45.394;5.734;2023-04-25T11:40:11;4.63;;;2.08;;
55288;SDS011;41154;45.394;5.734;2023-04-25T11:42:43;4.18;;;2.13;;
55288;SDS011;41154;45.394;5.734;2023-04-25T11:45:10;2.58;;;1.80;;
55288;SDS011;41154;45.394;5.734;2023-04-25T11:47:36;3.42;;;2.10;;
55288;SDS011;41154;45.394;5.734;2023-04-25T11:50:03;2.28;;;1.67;;
55288;SDS011;41154;45.394;5.734;2023-04-25T11:52:44;2.92;;;2.10;;
55288;SDS011;41154;45.394;5.734;2023-04-25T11:55:17;2.65;;;1.95;;
55288;SDS011;41154;45.394;5.734;2023-04-25T11:57:46;4.72;;;2.30;;
55288;SDS011;41154;45.394;5.734;2023-04-25T12:00:15;4.22;;;2.25;;
55288;SDS011;41154;45.394;5.734;2023-04-25T12:02:44;4.25;;;1.85;;
55288;SDS011;41154;45.394;5.734;2023-04-25T12:05:17;5.20;;;2.10;;
55288;SDS011;41154;45.394;5.734;2023-04-25T12:07:44;3.55;;;1.80;;
55288;SDS011;41154;45.394;5.734;2023-04-25T12:10:11;3.80;;;2.13;;
55288;SDS011;41154;45.394;5.734;2023-04-25T12:12:42;3.90;;;1.90;;
55288;SDS011;41154;45.394;5.734;2023-04-25T12:15:09;3.47;;;2.15;;
55288;SDS011;41154;45.394;5.734;2023-04-25T12:17:36;4.07;;;1.70;;
55288;SDS011;41154;45.394;5.734;2023-04-25T12:20:07;2.78;;;1.77;;
55288;SDS011;41154;45.394;5.734;2023-04-25T12:22:34;3.25;;;1.73;;
55288;SDS011;41154;45.394;5.734;2023-04-25T12:25:02;4.05;;;1.70;;
55288;SDS011;41154;45.394;5.734;2023-04-25T12:27:30;3.63;;;2.20;;
55288;SDS011;41154;45.394;5.734;2023-04-25T12:29:57;5.75;;;2.00;;
55288;SDS011;41154;45.394;5.734;2023-04-25T12:32:23;4.40;;;2.00;;
55288;SDS011;41154;45.394;5.734;2023-04-25T12:34:50;3.72;;;1.98;;
55288;SDS011;41154;45.394;5.734;2023-04-25T12:37:16;4.03;;;2.00;;
55288;SDS011;41154;45.394;5.734;2023-04-25T12:39:42;5.03;;;1.83;;
55288;SDS011;41154;45.394;5.734;2023-04-25T12:42:08;3.80;;;1.92;;
55288;SDS011;41154;45.394;5.734;2023-04-25T12:44:37;2.72;;;2.10;;
55288;SDS011;41154;45.394;5.734;2023-04-25T12:47:03;3.22;;;1.80;;
55288;SDS011;41154;45.394;5.734;2023-04-25T12:49:30;3.88;;;1.70;;
55288;SDS011;41154;45.394;5.734;2023-04-25T12:51:56;2.72;;;1.70;;
55288;SDS011;41154;45.394;5.734;2023-04-25T12:54:22;2.17;;;1.63;;
55288;SDS011;41154;45.394;5.734;2023-04-25T12:56:49;2.72;;;1.65;;
55288;SDS011;41154;45.394;5.734;2023-04-25T12:59:15;3.40;;;2.00;;
55288;SDS011;41154;45.394;5.734;2023-04-25T13:01:41;3.28;;;1.85;;
55288;SDS011;41154;45.394;5.734;2023-04-25T13:04:07;3.15;;;1.50;;
55288;SDS011;41154;45.394;5.734;2023-04-25T13:06:33;6.20;;;1.88;;
55288;SDS011;41154;45.394;5.734;2023-04-25T13:08:59;3.88;;;1.50;;
55288;SDS011;41154;45.394;5.734;2023-04-25T13:11:25;3.10;;;1.80;;
55288;SDS011;41154;45.394;5.734;2023-04-25T13:13:51;3.60;;;1.52;;
55288;SDS011;41154;45.394;5.734;2023-04-25T13:16:17;5.40;;;1.90;;
55288;SDS011;41154;45.394;5.734;2023-04-25T13:18:45;2.53;;;1.55;;
55288;SDS011;41154;45.394;5.734;2023-04-25T13:21:11;5.43;;;1.60;;
55288;SDS011;41154;45.394;5.734;2023-04-25T13:23:37;2.45;;;1.75;;
55288;SDS011;41154;45.394;5.734;2023-04-25T13:26:03;2.45;;;1.50;;
55288;SDS011;41154;45.394;5.734;2023-04-25T13:28:29;3.20;;;1.60;;
55288;SDS011;41154;45.394;5.734;2023-04-25T13:30:55;2.05;;;1.67;;
55288;SDS011;41154;45.394;5.734;2023-04-25T13:33:20;4.53;;;1.80;;
55288;SDS011;41154;45.394;5.734;2023-04-25T13:35:47;2.58;;;1.40;;
55288;SDS011;41154;45.394;5.734;2023-04-25T13:38:21;1.70;;;1.40;;
55288;SDS011;41154;45.394;5.734;2023-04-25T13:40:49;4.35;;;1.40;;
55288;SDS011;41154;45.394;5.734;2023-04-25T13:43:17;4.05;;;1.50;;
55288;SDS011;41154;45.394;5.734;2023-04-25T13:45:44;3.63;;;1.60;;
55288;SDS011;41154;45.394;5.734;2023-04-25T13:48:10;2.70;;;1.40;;
55288;SDS011;41154;45.394;5.734;2023-04-25T13:50:36;1.45;;;1.27;;
55288;SDS011;41154;45.394;5.734;2023-04-25T13:53:01;2.80;;;1.40;;
55288;SDS011;41154;45.394;5.734;2023-04-25T13:55:27;6.90;;;1.67;;
55288;SDS011;41154;45.394;5.734;2023-04-25T13:57:53;3.30;;;1.77;;
55288;SDS011;41154;45.394;5.734;2023-04-25T14:00:18;1.70;;;1.27;;
55288;SDS011;41154;45.394;5.734;2023-04-25T14:02:45;4.47;;;1.55;;
55288;SDS011;41154;45.394;5.734;2023-04-25T14:05:11;2.42;;;1.50;;
55288;SDS011;41154;45.394;5.734;2023-04-25T14:07:36;5.82;;;1.35;;
55288;SDS011;41154;45.394;5.734;2023-04-25T14:10:03;3.72;;;1.60;;
55288;SDS011;41154;45.394;5.734;2023-04-25T14:12:30;3.08;;;1.50;;
55288;SDS011;41154;45.394;5.734;2023-04-25T14:14:55;2.63;;;1.15;;
55288;SDS011;41154;45.394;5.734;2023-04-25T14:17:21;2.53;;;1.20;;
55288;SDS011;41154;45.394;5.734;2023-04-25T14:19:49;2.88;;;1.30;;
55288;SDS011;41154;45.394;5.734;2023-04-25T14:22:15;4.40;;;1.45;;
55288;SDS011;41154;45.394;5.734;2023-04-25T14:24:41;2.50;;;1.13;;
55288;SDS011;41154;45.394;5.734;2023-04-25T14:27:07;2.38;;;1.30;;
55288;SDS011;41154;45.394;5.734;2023-04-25T14:29:33;3.00;;;1.27;;
55288;SDS011;41154;45.394;5.734;2023-04-25T14:31:59;2.85;;;1.20;;
55288;SDS011;41154;45.394;5.734;2023-04-25T14:34:25;1.67;;;1.17;;
55288;SDS011;41154;45.394;5.734;2023-04-25T14:36:51;2.72;;;1.20;;
55288;SDS011;41154;45.394;5.734;2023-04-25T14:39:17;2.88;;;1.58;;
55288;SDS011;41154;45.394;5.734;2023-04-25T14:41:44;1.98;;;1.25;;
55288;SDS011;41154;45.394;5.734;2023-04-25T14:44:10;3.83;;;1.20;;
55288;SDS011;41154;45.394;5.734;2023-04-25T14:46:36;2.22;;;1.13;;
55288;SDS011;41154;45.394;5.734;2023-04-25T14:49:02;4.03;;;1.40;;
55288;SDS011;41154;45.394;5.734;2023-04-25T14:51:29;4.88;;;1.25;;
55288;SDS011;41154;45.394;5.734;2023-04-25T14:53:54;1.40;;;1.00;;
55288;SDS011;41154;45.394;5.734;2023-04-25T14:56:21;4.25;;;1.45;;
55288;SDS011;41154;45.394;5.734;2023-04-25T14:58:47;2.05;;;1.20;;
55288;SDS011;41154;45.394;5.734;2023-04-25T15:01:13;2.00;;;1.40;;
55288;SDS011;41154;45.394;5.734;2023-04-25T15:03:42;4.18;;;1.40;;
55288;SDS011;41154;45.394;5.734;2023-04-25T15:06:08;4.43;;;1.75;;
55288;SDS011;41154;45.394;5.734;2023-04-25T15:08:34;1.98;;;1.15;;
55288;SDS011;41154;45.394;5.734;2023-04-25T15:11:01;2.40;;;1.10;;